sensor_id;sensor_type;location;lat;lon;timestamp;temperature;humidity
70676;DHT22;59069;52.242;20.900;2023-12-14T00:01:40;3.76;89.43
70676;DHT22;59069;52.242;20.900;2023-12-14T00:04:06;3.71;89.33
70676;DHT22;59069;52.242;20.900;2023-12-14T00:06:32;3.71;89.43
70676;DHT22;59069;52.242;20.900;2023-12-14T00:08:57;3.67;89.40
70676;DHT22;59069;52.242;20.900;2023-12-14T00:11:23;3.66;89.52
70676;DHT22;59069;52.242;20.900;2023-12-14T00:13:48;3.67;89.50
70676;DHT22;59069;52.242;20.900;2023-12-14T00:16:14;3.67;89.47
70676;DHT22;59069;52.242;20.900;2023-12-14T00:18:39;3.67;89.74
70676;DHT22;59069;52.242;20.900;2023-12-14T00:21:05;3.69;89.78
70676;DHT22;59069;52.242;20.900;2023-12-14T00:23:30;3.66;89.72
70676;DHT22;59069;52.242;20.900;2023-12-14T00:25:56;3.67;89.78
70676;DHT22;59069;52.242;20.900;2023-12-14T00:28:21;3.64;89.70
70676;DHT22;59069;52.242;20.900;2023-12-14T00:30:47;3.62;89.68
70676;DHT22;59069;52.242;20.900;2023-12-14T00:33:13;3.62;89.70
70676;DHT22;59069;52.242;20.900;2023-12-14T00:35:38;3.62;89.63
70676;DHT22;59069;52.242;20.900;2023-12-14T00:38:04;3.57;89.77
70676;DHT22;59069;52.242;20.900;2023-12-14T00:40:29;3.57;89.77
70676;DHT22;59069;52.242;20.900;2023-12-14T00:42:55;3.57;89.70
70676;DHT22;59069;52.242;20.900;2023-12-14T00:45:20;3.56;89.67
70676;DHT22;59069;52.242;20.900;2023-12-14T00:47:45;3.53;89.70
70676;DHT22;59069;52.242;20.900;2023-12-14T00:50:11;3.50;89.81
70676;DHT22;59069;52.242;20.900;2023-12-14T00:52:36;3.54;89.81
70676;DHT22;59069;52.242;20.900;2023-12-14T00:55:02;3.54;89.76
70676;DHT22;59069;52.242;20.900;2023-12-14T00:57:28;3.54;89.80
70676;DHT22;59069;52.242;20.900;2023-12-14T00:59:53;3.54;89.93
70676;DHT22;59069;52.242;20.900;2023-12-14T01:02:19;3.50;89.93
70676;DHT22;59069;52.242;20.900;2023-12-14T01:04:44;3.52;90.01
70676;DHT22;59069;52.242;20.900;2023-12-14T01:07:10;3.52;89.98
70676;DHT22;59069;52.242;20.900;2023-12-14T01:09:35;3.53;89.91
70676;DHT22;59069;52.242;20.900;2023-12-14T01:12:01;3.53;89.95
70676;DHT22;59069;52.242;20.900;2023-12-14T01:14:26;3.52;89.92
70676;DHT22;59069;52.242;20.900;2023-12-14T01:16:52;3.54;89.89
70676;DHT22;59069;52.242;20.900;2023-12-14T01:19:17;3.53;89.88
70676;DHT22;59069;52.242;20.900;2023-12-14T01:21:43;3.56;89.74
70676;DHT22;59069;52.242;20.900;2023-12-14T01:24:08;3.54;89.81
70676;DHT22;59069;52.242;20.900;2023-12-14T01:26:34;3.56;89.76
70676;DHT22;59069;52.242;20.900;2023-12-14T01:28:59;3.57;89.83
70676;DHT22;59069;52.242;20.900;2023-12-14T01:31:25;3.56;89.83
70676;DHT22;59069;52.242;20.900;2023-12-14T01:33:51;3.54;89.86
70676;DHT22;59069;52.242;20.900;2023-12-14T01:36:23;3.50;89.94
70676;DHT22;59069;52.242;20.900;2023-12-14T01:38:49;3.50;89.90
70676;DHT22;59069;52.242;20.900;2023-12-14T01:41:14;3.50;89.77
70676;DHT22;59069;52.242;20.900;2023-12-14T01:43:40;3.47;89.83
70676;DHT22;59069;52.242;20.900;2023-12-14T01:46:05;3.46;89.92
70676;DHT22;59069;52.242;20.900;2023-12-14T01:48:31;3.44;90.04
70676;DHT22;59069;52.242;20.900;2023-12-14T01:50:56;3.43;90.07
70676;DHT22;59069;52.242;20.900;2023-12-14T01:53:22;3.44;90.12
70676;DHT22;59069;52.242;20.900;2023-12-14T01:55:48;3.43;90.13
70676;DHT22;59069;52.242;20.900;2023-12-14T01:58:13;3.44;90.07
70676;DHT22;59069;52.242;20.900;2023-12-14T02:01:17;3.42;90.19
70676;DHT22;59069;52.242;20.900;2023-12-14T02:03:49;3.40;90.13
70676;DHT22;59069;52.242;20.900;2023-12-14T02:06:15;3.39;90.11
70676;DHT22;59069;52.242;20.900;2023-12-14T02:08:40;3.42;90.11
70676;DHT22;59069;52.242;20.900;2023-12-14T02:11:06;3.42;90.10
70676;DHT22;59069;52.242;20.900;2023-12-14T02:13:32;3.42;90.24
70676;DHT22;59069;52.242;20.900;2023-12-14T02:15:58;3.39;90.33
70676;DHT22;59069;52.242;20.900;2023-12-14T02:18:23;3.39;90.26
70676;DHT22;59069;52.242;20.900;2023-12-14T02:20:49;3.39;90.28
70676;DHT22;59069;52.242;20.900;2023-12-14T02:23:14;3.40;90.29
70676;DHT22;59069;52.242;20.900;2023-12-14T02:25:40;3.36;90.28
70676;DHT22;59069;52.242;20.900;2023-12-14T02:28:05;3.37;90.24
70676;DHT22;59069;52.242;20.900;2023-12-14T02:30:31;3.37;90.28
70676;DHT22;59069;52.242;20.900;2023-12-14T02:32:56;3.33;90.21
70676;DHT22;59069;52.242;20.900;2023-12-14T02:35:22;3.33;90.23
70676;DHT22;59069;52.242;20.900;2023-12-14T02:37:48;3.33;90.16
70676;DHT22;59069;52.242;20.900;2023-12-14T02:40:13;3.33;90.09
70676;DHT22;59069;52.242;20.900;2023-12-14T02:42:39;3.32;90.18
70676;DHT22;59069;52.242;20.900;2023-12-14T02:45:06;3.32;90.23
70676;DHT22;59069;52.242;20.900;2023-12-14T02:47:32;3.30;90.25
70676;DHT22;59069;52.242;20.900;2023-12-14T02:49:57;3.35;90.24
70676;DHT22;59069;52.242;20.900;2023-12-14T02:52:23;3.37;90.13
70676;DHT22;59069;52.242;20.900;2023-12-14T02:54:48;3.37;90.10
70676;DHT22;59069;52.242;20.900;2023-12-14T02:57:14;3.37;90.06
70676;DHT22;59069;52.242;20.900;2023-12-14T02:59:39;3.32;90.09
70676;DHT22;59069;52.242;20.900;2023-12-14T03:02:05;3.30;90.17
70676;DHT22;59069;52.242;20.900;2023-12-14T03:04:31;3.30;90.22
70676;DHT22;59069;52.242;20.900;2023-12-14T03:06:56;3.27;90.10
70676;DHT22;59069;52.242;20.900;2023-12-14T03:09:22;3.30;89.94
70676;DHT22;59069;52.242;20.900;2023-12-14T03:11:48;3.27;90.04
70676;DHT22;59069;52.242;20.900;2023-12-14T03:14:13;3.29;90.04
70676;DHT22;59069;52.242;20.900;2023-12-14T03:16:39;3.26;90.14
70676;DHT22;59069;52.242;20.900;2023-12-14T03:19:04;3.25;90.18
70676;DHT22;59069;52.242;20.900;2023-12-14T03:21:30;3.25;90.22
70676;DHT22;59069;52.242;20.900;2023-12-14T03:23:56;3.23;90.22
70676;DHT22;59069;52.242;20.900;2023-12-14T03:26:21;3.23;90.28
70676;DHT22;59069;52.242;20.900;2023-12-14T03:28:47;3.19;90.26
70676;DHT22;59069;52.242;20.900;2023-12-14T03:31:13;3.22;90.24
70676;DHT22;59069;52.242;20.900;2023-12-14T03:33:39;3.22;90.31
70676;DHT22;59069;52.242;20.900;2023-12-14T03:36:05;3.23;90.25
70676;DHT22;59069;52.242;20.900;2023-12-14T03:38:31;3.25;90.27
70676;DHT22;59069;52.242;20.900;2023-12-14T03:40:57;3.25;90.29
70676;DHT22;59069;52.242;20.900;2023-12-14T03:43:22;3.26;90.28
70676;DHT22;59069;52.242;20.900;2023-12-14T03:45:48;3.26;90.21
70676;DHT22;59069;52.242;20.900;2023-12-14T03:48:13;3.25;90.25
70676;DHT22;59069;52.242;20.900;2023-12-14T03:50:38;3.26;90.32
70676;DHT22;59069;52.242;20.900;2023-12-14T03:53:04;3.27;90.20
70676;DHT22;59069;52.242;20.900;2023-12-14T03:55:29;3.27;90.12
70676;DHT22;59069;52.242;20.900;2023-12-14T03:57:55;3.30;90.17
70676;DHT22;59069;52.242;20.900;2023-12-14T04:00:20;3.23;90.10
70676;DHT22;59069;52.242;20.900;2023-12-14T04:02:46;3.25;90.07
70676;DHT22;59069;52.242;20.900;2023-12-14T04:05:12;3.20;90.20
70676;DHT22;59069;52.242;20.900;2023-12-14T04:07:38;3.23;90.19
70676;DHT22;59069;52.242;20.900;2023-12-14T04:10:12;3.26;90.10
70676;DHT22;59069;52.242;20.900;2023-12-14T04:12:38;3.27;90.10
70676;DHT22;59069;52.242;20.900;2023-12-14T04:15:04;3.27;90.08
70676;DHT22;59069;52.242;20.900;2023-12-14T04:17:30;3.32;90.04
70676;DHT22;59069;52.242;20.900;2023-12-14T04:19:56;3.36;90.02
70676;DHT22;59069;52.242;20.900;2023-12-14T04:22:21;3.42;89.90
70676;DHT22;59069;52.242;20.900;2023-12-14T04:24:47;3.43;89.82
70676;DHT22;59069;52.242;20.900;2023-12-14T04:27:12;3.42;89.73
70676;DHT22;59069;52.242;20.900;2023-12-14T04:29:38;3.43;89.66
70676;DHT22;59069;52.242;20.900;2023-12-14T04:32:04;3.39;89.73
70676;DHT22;59069;52.242;20.900;2023-12-14T04:34:29;3.40;89.74
70676;DHT22;59069;52.242;20.900;2023-12-14T04:36:55;3.35;89.81
70676;DHT22;59069;52.242;20.900;2023-12-14T04:39:23;3.32;89.91
70676;DHT22;59069;52.242;20.900;2023-12-14T04:41:50;3.32;89.88
70676;DHT22;59069;52.242;20.900;2023-12-14T04:44:16;3.32;89.74
70676;DHT22;59069;52.242;20.900;2023-12-14T04:46:41;3.33;89.73
70676;DHT22;59069;52.242;20.900;2023-12-14T04:49:07;3.29;89.83
70676;DHT22;59069;52.242;20.900;2023-12-14T04:51:33;3.26;90.04
70676;DHT22;59069;52.242;20.900;2023-12-14T04:53:58;3.25;90.03
70676;DHT22;59069;52.242;20.900;2023-12-14T04:56:24;3.26;90.02
70676;DHT22;59069;52.242;20.900;2023-12-14T04:58:49;3.29;89.97
70676;DHT22;59069;52.242;20.900;2023-12-14T05:01:15;3.32;90.08
70676;DHT22;59069;52.242;20.900;2023-12-14T05:03:40;3.32;90.06
70676;DHT22;59069;52.242;20.900;2023-12-14T05:06:06;3.29;90.10
70676;DHT22;59069;52.242;20.900;2023-12-14T05:08:32;3.27;90.07
70676;DHT22;59069;52.242;20.900;2023-12-14T05:10:57;3.29;90.24
70676;DHT22;59069;52.242;20.900;2023-12-14T05:13:23;3.27;90.23
70676;DHT22;59069;52.242;20.900;2023-12-14T05:15:48;3.26;90.25
70676;DHT22;59069;52.242;20.900;2023-12-14T05:18:14;3.26;90.32
70676;DHT22;59069;52.242;20.900;2023-12-14T05:20:39;3.27;90.26
70676;DHT22;59069;52.242;20.900;2023-12-14T05:23:05;3.29;90.34
70676;DHT22;59069;52.242;20.900;2023-12-14T05:25:30;3.27;90.32
70676;DHT22;59069;52.242;20.900;2023-12-14T05:27:55;3.29;90.26
70676;DHT22;59069;52.242;20.900;2023-12-14T05:30:21;3.29;90.37
70676;DHT22;59069;52.242;20.900;2023-12-14T05:32:46;3.26;90.34
70676;DHT22;59069;52.242;20.900;2023-12-14T05:35:12;3.22;90.40
70676;DHT22;59069;52.242;20.900;2023-12-14T05:37:40;3.22;90.29
70676;DHT22;59069;52.242;20.900;2023-12-14T05:40:08;3.30;90.18
70676;DHT22;59069;52.242;20.900;2023-12-14T05:42:34;3.32;90.11
70676;DHT22;59069;52.242;20.900;2023-12-14T05:45:00;3.32;90.01
70676;DHT22;59069;52.242;20.900;2023-12-14T05:47:28;3.36;90.00
70676;DHT22;59069;52.242;20.900;2023-12-14T05:49:55;3.35;90.05
70676;DHT22;59069;52.242;20.900;2023-12-14T05:52:20;3.35;89.97
70676;DHT22;59069;52.242;20.900;2023-12-14T05:54:46;3.37;89.95
70676;DHT22;59069;52.242;20.900;2023-12-14T05:57:11;3.39;89.95
70676;DHT22;59069;52.242;20.900;2023-12-14T05:59:38;3.37;90.03
70676;DHT22;59069;52.242;20.900;2023-12-14T06:02:04;3.36;90.05
70676;DHT22;59069;52.242;20.900;2023-12-14T06:04:32;3.30;90.10
70676;DHT22;59069;52.242;20.900;2023-12-14T06:06:57;3.35;90.11
70676;DHT22;59069;52.242;20.900;2023-12-14T06:09:23;3.37;89.98
70676;DHT22;59069;52.242;20.900;2023-12-14T06:11:52;3.40;90.03
70676;DHT22;59069;52.242;20.900;2023-12-14T06:14:17;3.42;89.87
70676;DHT22;59069;52.242;20.900;2023-12-14T06:16:43;3.39;89.82
70676;DHT22;59069;52.242;20.900;2023-12-14T06:19:08;3.42;89.88
70676;DHT22;59069;52.242;20.900;2023-12-14T06:21:34;3.40;89.85
70676;DHT22;59069;52.242;20.900;2023-12-14T06:23:59;3.39;89.90
70676;DHT22;59069;52.242;20.900;2023-12-14T06:26:25;3.33;89.97
70676;DHT22;59069;52.242;20.900;2023-12-14T06:28:51;3.35;89.94
70676;DHT22;59069;52.242;20.900;2023-12-14T06:31:18;3.36;89.90
70676;DHT22;59069;52.242;20.900;2023-12-14T06:33:45;3.36;89.82
70676;DHT22;59069;52.242;20.900;2023-12-14T06:36:11;3.33;89.83
70676;DHT22;59069;52.242;20.900;2023-12-14T06:38:39;3.36;89.71
70676;DHT22;59069;52.242;20.900;2023-12-14T06:41:06;3.37;89.62
70676;DHT22;59069;52.242;20.900;2023-12-14T06:43:34;3.32;89.58
70676;DHT22;59069;52.242;20.900;2023-12-14T06:45:59;3.32;89.57
70676;DHT22;59069;52.242;20.900;2023-12-14T06:48:25;3.32;89.65
70676;DHT22;59069;52.242;20.900;2023-12-14T06:50:50;3.32;89.66
70676;DHT22;59069;52.242;20.900;2023-12-14T06:53:16;3.35;89.64
70676;DHT22;59069;52.242;20.900;2023-12-14T06:55:41;3.35;89.61
70676;DHT22;59069;52.242;20.900;2023-12-14T06:58:07;3.32;89.66
70676;DHT22;59069;52.242;20.900;2023-12-14T07:00:39;3.32;89.64
70676;DHT22;59069;52.242;20.900;2023-12-14T07:03:04;3.29;89.72
70676;DHT22;59069;52.242;20.900;2023-12-14T07:05:30;3.27;89.82
70676;DHT22;59069;52.242;20.900;2023-12-14T07:07:55;3.29;89.82
70676;DHT22;59069;52.242;20.900;2023-12-14T07:10:22;3.29;89.79
70676;DHT22;59069;52.242;20.900;2023-12-14T07:12:47;3.30;89.79
70676;DHT22;59069;52.242;20.900;2023-12-14T07:15:13;3.29;89.81
70676;DHT22;59069;52.242;20.900;2023-12-14T07:17:38;3.25;89.80
70676;DHT22;59069;52.242;20.900;2023-12-14T07:20:04;3.25;89.84
70676;DHT22;59069;52.242;20.900;2023-12-14T07:22:31;3.20;89.87
70676;DHT22;59069;52.242;20.900;2023-12-14T07:24:56;3.22;89.87
70676;DHT22;59069;52.242;20.900;2023-12-14T07:27:22;3.25;89.83
70676;DHT22;59069;52.242;20.900;2023-12-14T07:29:47;3.23;89.67
70676;DHT22;59069;52.242;20.900;2023-12-14T07:32:13;3.25;89.73
70676;DHT22;59069;52.242;20.900;2023-12-14T07:34:38;3.26;89.74
70676;DHT22;59069;52.242;20.900;2023-12-14T07:37:04;3.29;89.73
70676;DHT22;59069;52.242;20.900;2023-12-14T07:39:31;3.27;89.57
70676;DHT22;59069;52.242;20.900;2023-12-14T07:41:56;3.29;89.55
70676;DHT22;59069;52.242;20.900;2023-12-14T07:44:22;3.27;89.70
70676;DHT22;59069;52.242;20.900;2023-12-14T07:46:48;3.22;89.72
70676;DHT22;59069;52.242;20.900;2023-12-14T07:49:13;3.25;89.68
70676;DHT22;59069;52.242;20.900;2023-12-14T07:51:39;3.26;89.69
70676;DHT22;59069;52.242;20.900;2023-12-14T07:54:04;3.23;89.70
70676;DHT22;59069;52.242;20.900;2023-12-14T07:56:30;3.26;89.73
70676;DHT22;59069;52.242;20.900;2023-12-14T07:58:55;3.26;89.66
70676;DHT22;59069;52.242;20.900;2023-12-14T08:01:20;3.27;89.67
70676;DHT22;59069;52.242;20.900;2023-12-14T08:03:46;3.27;89.71
70676;DHT22;59069;52.242;20.900;2023-12-14T08:06:12;3.27;89.80
70676;DHT22;59069;52.242;20.900;2023-12-14T08:08:37;3.30;89.94
70676;DHT22;59069;52.242;20.900;2023-12-14T08:11:03;3.32;89.91
70676;DHT22;59069;52.242;20.900;2023-12-14T08:13:30;3.35;90.04
70676;DHT22;59069;52.242;20.900;2023-12-14T08:15:55;3.39;90.18
70676;DHT22;59069;52.242;20.900;2023-12-14T08:18:20;3.40;90.16
70676;DHT22;59069;52.242;20.900;2023-12-14T08:20:46;3.43;90.07
70676;DHT22;59069;52.242;20.900;2023-12-14T08:23:11;3.43;89.85
70676;DHT22;59069;52.242;20.900;2023-12-14T08:25:37;3.46;89.72
70676;DHT22;59069;52.242;20.900;2023-12-14T08:28:02;3.49;89.42
70676;DHT22;59069;52.242;20.900;2023-12-14T08:30:28;3.50;89.32
70676;DHT22;59069;52.242;20.900;2023-12-14T08:32:53;3.52;89.27
70676;DHT22;59069;52.242;20.900;2023-12-14T08:35:19;3.49;89.14
70676;DHT22;59069;52.242;20.900;2023-12-14T08:37:44;3.47;89.03
70676;DHT22;59069;52.242;20.900;2023-12-14T08:40:10;3.47;88.89
70676;DHT22;59069;52.242;20.900;2023-12-14T08:42:36;3.46;88.87
70676;DHT22;59069;52.242;20.900;2023-12-14T08:45:01;3.42;88.88
70676;DHT22;59069;52.242;20.900;2023-12-14T08:47:27;3.39;88.91
70676;DHT22;59069;52.242;20.900;2023-12-14T08:49:52;3.35;88.43
70676;DHT22;59069;52.242;20.900;2023-12-14T08:52:18;3.30;88.55
70676;DHT22;59069;52.242;20.900;2023-12-14T08:54:44;3.32;88.74
70676;DHT22;59069;52.242;20.900;2023-12-14T08:57:10;3.29;88.89
70676;DHT22;59069;52.242;20.900;2023-12-14T08:59:36;3.32;89.07
70676;DHT22;59069;52.242;20.900;2023-12-14T09:02:02;3.35;88.96
70676;DHT22;59069;52.242;20.900;2023-12-14T09:04:27;3.33;88.98
70676;DHT22;59069;52.242;20.900;2023-12-14T09:06:53;3.33;88.97
70676;DHT22;59069;52.242;20.900;2023-12-14T09:09:18;3.32;88.84
70676;DHT22;59069;52.242;20.900;2023-12-14T09:11:44;3.26;88.92
70676;DHT22;59069;52.242;20.900;2023-12-14T09:14:10;3.29;88.99
70676;DHT22;59069;52.242;20.900;2023-12-14T09:16:35;3.27;89.12
70676;DHT22;59069;52.242;20.900;2023-12-14T09:19:01;3.29;89.05
70676;DHT22;59069;52.242;20.900;2023-12-14T09:21:27;3.27;89.21
70676;DHT22;59069;52.242;20.900;2023-12-14T09:23:52;3.30;89.43
70676;DHT22;59069;52.242;20.900;2023-12-14T09:26:20;3.33;89.38
70676;DHT22;59069;52.242;20.900;2023-12-14T09:28:46;3.33;89.13
70676;DHT22;59069;52.242;20.900;2023-12-14T09:31:11;3.32;89.05
70676;DHT22;59069;52.242;20.900;2023-12-14T09:33:36;3.29;89.04
70676;DHT22;59069;52.242;20.900;2023-12-14T09:36:02;3.29;89.25
70676;DHT22;59069;52.242;20.900;2023-12-14T09:38:28;3.30;89.25
70676;DHT22;59069;52.242;20.900;2023-12-14T09:40:53;3.33;89.32
70676;DHT22;59069;52.242;20.900;2023-12-14T09:43:19;3.35;89.27
70676;DHT22;59069;52.242;20.900;2023-12-14T09:45:46;3.36;89.31
70676;DHT22;59069;52.242;20.900;2023-12-14T09:48:13;3.36;89.25
70676;DHT22;59069;52.242;20.900;2023-12-14T09:50:39;3.36;89.33
70676;DHT22;59069;52.242;20.900;2023-12-14T09:53:05;3.39;89.43
70676;DHT22;59069;52.242;20.900;2023-12-14T09:55:31;3.43;89.43
70676;DHT22;59069;52.242;20.900;2023-12-14T09:57:57;3.47;89.21
70676;DHT22;59069;52.242;20.900;2023-12-14T10:00:39;3.49;88.86
70676;DHT22;59069;52.242;20.900;2023-12-14T10:03:22;3.50;88.33
70676;DHT22;59069;52.242;20.900;2023-12-14T10:05:48;3.44;88.20
70676;DHT22;59069;52.242;20.900;2023-12-14T10:08:18;3.46;88.16
70676;DHT22;59069;52.242;20.900;2023-12-14T10:10:48;3.50;88.08
70676;DHT22;59069;52.242;20.900;2023-12-14T10:13:18;3.53;88.03
70676;DHT22;59069;52.242;20.900;2023-12-14T10:15:45;3.50;87.78
70676;DHT22;59069;52.242;20.900;2023-12-14T10:18:17;3.52;87.73
70676;DHT22;59069;52.242;20.900;2023-12-14T10:20:46;3.52;87.77
70676;DHT22;59069;52.242;20.900;2023-12-14T10:23:12;3.53;87.76
70676;DHT22;59069;52.242;20.900;2023-12-14T10:25:38;3.53;87.77
70676;DHT22;59069;52.242;20.900;2023-12-14T10:28:03;3.49;87.64
70676;DHT22;59069;52.242;20.900;2023-12-14T10:30:29;3.44;87.54
70676;DHT22;59069;52.242;20.900;2023-12-14T10:32:56;3.44;87.67
70676;DHT22;59069;52.242;20.900;2023-12-14T10:35:22;3.40;87.78
70676;DHT22;59069;52.242;20.900;2023-12-14T10:37:51;3.37;87.93
70676;DHT22;59069;52.242;20.900;2023-12-14T10:40:17;3.36;88.11
70676;DHT22;59069;52.242;20.900;2023-12-14T10:42:44;3.37;88.22
70676;DHT22;59069;52.242;20.900;2023-12-14T10:45:14;3.39;88.23
70676;DHT22;59069;52.242;20.900;2023-12-14T10:47:46;3.43;88.36
70676;DHT22;59069;52.242;20.900;2023-12-14T10:50:12;3.47;88.44
70676;DHT22;59069;52.242;20.900;2023-12-14T10:52:38;3.49;88.27
70676;DHT22;59069;52.242;20.900;2023-12-14T10:55:07;3.49;88.24
70676;DHT22;59069;52.242;20.900;2023-12-14T10:57:35;3.49;88.30
70676;DHT22;59069;52.242;20.900;2023-12-14T11:00:03;3.52;88.23
70676;DHT22;59069;52.242;20.900;2023-12-14T11:02:40;3.56;88.34
70676;DHT22;59069;52.242;20.900;2023-12-14T11:05:12;3.57;88.17
70676;DHT22;59069;52.242;20.900;2023-12-14T11:07:45;3.56;88.15
70676;DHT22;59069;52.242;20.900;2023-12-14T11:10:11;3.54;88.25
70676;DHT22;59069;52.242;20.900;2023-12-14T11:12:37;3.53;88.31
70676;DHT22;59069;52.242;20.900;2023-12-14T11:15:06;3.52;88.28
70676;DHT22;59069;52.242;20.900;2023-12-14T11:17:32;3.53;88.36
70676;DHT22;59069;52.242;20.900;2023-12-14T11:20:25;3.53;88.29
70676;DHT22;59069;52.242;20.900;2023-12-14T11:22:55;3.53;88.25
70676;DHT22;59069;52.242;20.900;2023-12-14T11:25:20;3.52;87.95
70676;DHT22;59069;52.242;20.900;2023-12-14T11:27:48;3.49;87.94
70676;DHT22;59069;52.242;20.900;2023-12-14T11:30:15;3.50;88.12
70676;DHT22;59069;52.242;20.900;2023-12-14T11:32:41;3.52;88.03
70676;DHT22;59069;52.242;20.900;2023-12-14T11:35:07;3.47;88.02
70676;DHT22;59069;52.242;20.900;2023-12-14T11:37:35;3.46;88.02
70676;DHT22;59069;52.242;20.900;2023-12-14T11:40:01;3.47;88.17
70676;DHT22;59069;52.242;20.900;2023-12-14T11:42:30;3.49;88.37
70676;DHT22;59069;52.242;20.900;2023-12-14T11:44:57;3.52;88.34
70676;DHT22;59069;52.242;20.900;2023-12-14T11:47:22;3.53;88.34
70676;DHT22;59069;52.242;20.900;2023-12-14T11:49:47;3.54;88.14
70676;DHT22;59069;52.242;20.900;2023-12-14T11:52:13;3.53;88.06
70676;DHT22;59069;52.242;20.900;2023-12-14T11:54:38;3.49;87.96
70676;DHT22;59069;52.242;20.900;2023-12-14T11:57:04;3.46;88.07
70676;DHT22;59069;52.242;20.900;2023-12-14T11:59:31;3.44;88.20
70676;DHT22;59069;52.242;20.900;2023-12-14T12:01:58;3.44;88.33
70676;DHT22;59069;52.242;20.900;2023-12-14T12:04:24;3.43;88.37
70676;DHT22;59069;52.242;20.900;2023-12-14T12:07:01;3.40;88.51
70676;DHT22;59069;52.242;20.900;2023-12-14T12:09:53;3.42;88.66
70676;DHT22;59069;52.242;20.900;2023-12-14T12:12:18;3.43;88.54
70676;DHT22;59069;52.242;20.900;2023-12-14T12:14:44;3.43;88.63
70676;DHT22;59069;52.242;20.900;2023-12-14T12:17:10;3.42;88.42
70676;DHT22;59069;52.242;20.900;2023-12-14T12:19:37;3.40;88.51
70676;DHT22;59069;52.242;20.900;2023-12-14T12:22:03;3.47;88.64
70676;DHT22;59069;52.242;20.900;2023-12-14T12:24:29;3.47;88.63
70676;DHT22;59069;52.242;20.900;2023-12-14T12:26:55;3.50;88.47
70676;DHT22;59069;52.242;20.900;2023-12-14T12:29:21;3.49;88.38
70676;DHT22;59069;52.242;20.900;2023-12-14T12:31:47;3.44;88.06
70676;DHT22;59069;52.242;20.900;2023-12-14T12:34:12;3.42;88.06
70676;DHT22;59069;52.242;20.900;2023-12-14T12:36:38;3.40;88.14
70676;DHT22;59069;52.242;20.900;2023-12-14T12:39:04;3.40;88.03
70676;DHT22;59069;52.242;20.900;2023-12-14T12:41:32;3.40;88.02
70676;DHT22;59069;52.242;20.900;2023-12-14T12:43:58;3.40;87.96
70676;DHT22;59069;52.242;20.900;2023-12-14T12:46:31;3.42;87.90
70676;DHT22;59069;52.242;20.900;2023-12-14T12:48:57;3.39;87.89
70676;DHT22;59069;52.242;20.900;2023-12-14T12:51:22;3.40;87.88
70676;DHT22;59069;52.242;20.900;2023-12-14T12:53:48;3.40;87.90
70676;DHT22;59069;52.242;20.900;2023-12-14T12:56:13;3.37;87.87
70676;DHT22;59069;52.242;20.900;2023-12-14T12:58:38;3.36;87.81
70676;DHT22;59069;52.242;20.900;2023-12-14T13:01:04;3.30;87.80
70676;DHT22;59069;52.242;20.900;2023-12-14T13:03:29;3.30;87.86
70676;DHT22;59069;52.242;20.900;2023-12-14T13:05:55;3.33;87.99
70676;DHT22;59069;52.242;20.900;2023-12-14T13:08:20;3.32;88.07
70676;DHT22;59069;52.242;20.900;2023-12-14T13:10:47;3.33;88.08
70676;DHT22;59069;52.242;20.900;2023-12-14T13:13:13;3.36;88.09
70676;DHT22;59069;52.242;20.900;2023-12-14T13:15:39;3.36;88.02
70676;DHT22;59069;52.242;20.900;2023-12-14T13:18:05;3.37;88.03
70676;DHT22;59069;52.242;20.900;2023-12-14T13:20:30;3.39;88.11
70676;DHT22;59069;52.242;20.900;2023-12-14T13:22:56;3.39;88.12
70676;DHT22;59069;52.242;20.900;2023-12-14T13:25:21;3.36;88.08
70676;DHT22;59069;52.242;20.900;2023-12-14T13:27:51;3.37;88.07
70676;DHT22;59069;52.242;20.900;2023-12-14T13:30:17;3.36;88.16
70676;DHT22;59069;52.242;20.900;2023-12-14T13:32:43;3.32;87.92
70676;DHT22;59069;52.242;20.900;2023-12-14T13:35:08;3.33;87.98
70676;DHT22;59069;52.242;20.900;2023-12-14T13:37:34;3.32;88.06
70676;DHT22;59069;52.242;20.900;2023-12-14T13:40:00;3.32;88.11
70676;DHT22;59069;52.242;20.900;2023-12-14T13:42:25;3.33;88.23
70676;DHT22;59069;52.242;20.900;2023-12-14T13:44:51;3.36;88.25
70676;DHT22;59069;52.242;20.900;2023-12-14T13:47:16;3.35;88.13
70676;DHT22;59069;52.242;20.900;2023-12-14T13:49:42;3.35;88.09
70676;DHT22;59069;52.242;20.900;2023-12-14T13:52:08;3.33;88.11
70676;DHT22;59069;52.242;20.900;2023-12-14T13:54:34;3.33;88.13
70676;DHT22;59069;52.242;20.900;2023-12-14T13:57:02;3.32;88.10
70676;DHT22;59069;52.242;20.900;2023-12-14T13:59:27;3.33;88.19
70676;DHT22;59069;52.242;20.900;2023-12-14T14:01:52;3.33;88.28
70676;DHT22;59069;52.242;20.900;2023-12-14T14:04:18;3.33;88.29
70676;DHT22;59069;52.242;20.900;2023-12-14T14:06:44;3.35;88.41
70676;DHT22;59069;52.242;20.900;2023-12-14T14:09:10;3.36;88.49
70676;DHT22;59069;52.242;20.900;2023-12-14T14:11:36;3.37;88.57
70676;DHT22;59069;52.242;20.900;2023-12-14T14:14:02;3.37;88.54
70676;DHT22;59069;52.242;20.900;2023-12-14T14:16:29;3.40;88.47
70676;DHT22;59069;52.242;20.900;2023-12-14T14:18:54;3.36;88.41
70676;DHT22;59069;52.242;20.900;2023-12-14T14:21:20;3.37;88.47
70676;DHT22;59069;52.242;20.900;2023-12-14T14:23:45;3.39;88.48
70676;DHT22;59069;52.242;20.900;2023-12-14T14:26:11;3.40;88.51
70676;DHT22;59069;52.242;20.900;2023-12-14T14:28:36;3.39;88.47
70676;DHT22;59069;52.242;20.900;2023-12-14T14:31:02;3.36;88.49
70676;DHT22;59069;52.242;20.900;2023-12-14T14:33:27;3.32;88.50
70676;DHT22;59069;52.242;20.900;2023-12-14T14:35:53;3.35;88.51
70676;DHT22;59069;52.242;20.900;2023-12-14T14:38:18;3.30;88.61
70676;DHT22;59069;52.242;20.900;2023-12-14T14:40:44;3.33;88.71
70676;DHT22;59069;52.242;20.900;2023-12-14T14:43:11;3.35;88.72
70676;DHT22;59069;52.242;20.900;2023-12-14T14:45:36;3.33;88.78
70676;DHT22;59069;52.242;20.900;2023-12-14T14:48:05;3.33;88.77
70676;DHT22;59069;52.242;20.900;2023-12-14T14:50:31;3.33;88.92
70676;DHT22;59069;52.242;20.900;2023-12-14T14:52:58;3.33;88.98
70676;DHT22;59069;52.242;20.900;2023-12-14T14:55:23;3.36;89.01
70676;DHT22;59069;52.242;20.900;2023-12-14T14:57:51;3.33;89.02
70676;DHT22;59069;52.242;20.900;2023-12-14T15:00:17;3.36;89.06
70676;DHT22;59069;52.242;20.900;2023-12-14T15:02:43;3.36;89.10
70676;DHT22;59069;52.242;20.900;2023-12-14T15:05:08;3.37;88.99
70676;DHT22;59069;52.242;20.900;2023-12-14T15:07:34;3.39;88.96
70676;DHT22;59069;52.242;20.900;2023-12-14T15:09:59;3.37;89.04
70676;DHT22;59069;52.242;20.900;2023-12-14T15:12:25;3.39;89.11
70676;DHT22;59069;52.242;20.900;2023-12-14T15:14:50;3.37;89.16
70676;DHT22;59069;52.242;20.900;2023-12-14T15:17:16;3.33;89.17
70676;DHT22;59069;52.242;20.900;2023-12-14T15:19:44;3.35;89.24
70676;DHT22;59069;52.242;20.900;2023-12-14T15:22:12;3.35;89.21
70676;DHT22;59069;52.242;20.900;2023-12-14T15:24:37;3.32;89.04